createdAt,value
2017-10-28T00:00:40.985Z,0
2017-10-28T00:01:41.004Z,0
2017-10-28T00:02:41.039Z,0
2017-10-28T00:03:41.046Z,0
2017-10-28T00:04:41.049Z,0
2017-10-28T00:05:41.711Z,0
2017-10-28T00:06:40.490Z,0
2017-10-28T00:07:41.438Z,0
2017-10-28T00:08:41.125Z,0
2017-10-28T00:09:41.464Z,0
2017-10-28T00:10:41.808Z,0
2017-10-28T00:11:41.187Z,0
2017-10-28T00:12:41.200Z,0
2017-10-28T00:13:40.892Z,0
2017-10-28T00:14:40.587Z,0
2017-10-28T00:15:41.252Z,0
2017-10-28T00:16:40.951Z,0
2017-10-28T00:17:41.927Z,0
2017-10-28T00:18:41.299Z,0
2017-10-28T00:19:41.649Z,0
2017-10-28T00:20:41.659Z,0
2017-10-28T00:21:41.996Z,0
2017-10-28T00:22:41.376Z,0
2017-10-28T00:23:40.745Z,0
2017-10-28T00:24:41.727Z,0
2017-10-28T00:25:41.423Z,0
2017-10-28T00:26:41.441Z,0
2017-10-28T00:27:42.107Z,0
2017-10-28T00:28:41.851Z,0
2017-10-28T00:29:41.498Z,0
2017-10-28T00:30:41.506Z,0
2017-10-28T00:31:41.534Z,0
2017-10-28T00:32:41.545Z,0
2017-10-28T00:33:41.557Z,0
2017-10-28T00:34:41.572Z,0
2017-10-28T00:35:41.918Z,0
2017-10-28T00:36:41.948Z,0
2017-10-28T00:37:41.951Z,0
2017-10-28T00:38:41.647Z,0
2017-10-28T00:39:41.676Z,0
2017-10-28T00:40:42.005Z,0
2017-10-28T00:41:41.701Z,0
2017-10-28T00:42:41.721Z,0
2017-10-28T00:43:42.060Z,0
2017-10-28T00:44:41.751Z,0
2017-10-28T00:45:42.423Z,0
2017-10-28T00:46:42.434Z,0
2017-10-28T00:47:41.803Z,0
2017-10-28T00:48:41.228Z,0
2017-10-28T00:49:42.162Z,0
2017-10-28T00:50:41.857Z,0
2017-10-28T00:51:41.873Z,0
2017-10-28T00:52:42.205Z,0
2017-10-28T00:53:41.903Z,0
2017-10-28T00:54:42.248Z,0
2017-10-28T00:55:41.946Z,0
2017-10-28T00:56:42.289Z,0
2017-10-28T00:57:42.620Z,0
2017-10-28T00:58:42.640Z,0
2017-10-28T00:59:42.011Z,0
2017-10-28T01:00:42.343Z,0
2017-10-28T01:01:42.066Z,0
2017-10-28T01:02:42.374Z,0
2017-10-28T01:03:42.077Z,0
2017-10-28T01:04:42.801Z,0
2017-10-28T01:05:41.791Z,0
2017-10-28T01:06:42.129Z,0
2017-10-28T01:07:42.147Z,0
2017-10-28T01:08:42.167Z,0
2017-10-28T01:09:42.176Z,0
2017-10-28T01:10:42.200Z,0
2017-10-28T01:11:42.213Z,0
2017-10-28T01:12:42.564Z,0
2017-10-28T01:13:42.265Z,0
2017-10-28T01:14:41.949Z,0
2017-10-28T01:15:41.963Z,0
2017-10-28T01:16:42.307Z,0
2017-10-28T01:17:42.320Z,0
2017-10-28T01:18:42.338Z,0
2017-10-28T01:19:42.083Z,0
2017-10-28T01:20:42.708Z,0
2017-10-28T01:21:42.747Z,0
2017-10-28T01:22:42.727Z,0
2017-10-28T01:23:41.784Z,0
2017-10-28T01:24:43.084Z,0
2017-10-28T01:25:42.792Z,0
2017-10-28T01:26:43.115Z,0
2017-10-28T01:27:42.498Z,0
2017-10-28T01:28:42.831Z,0
2017-10-28T01:29:42.845Z,0
2017-10-28T01:30:42.879Z,0
2017-10-28T01:31:43.212Z,0
2017-10-28T01:32:42.908Z,0
2017-10-28T01:33:43.251Z,0
2017-10-28T01:34:42.290Z,0
2017-10-28T01:35:42.687Z,0
2017-10-28T01:36:42.352Z,0
2017-10-28T01:37:42.673Z,0
2017-10-28T01:38:43.024Z,0
2017-10-28T01:39:43.048Z,0
2017-10-28T01:40:43.037Z,0
2017-10-28T01:41:42.412Z,0
2017-10-28T01:42:42.754Z,0
2017-10-28T01:43:42.766Z,0
2017-10-28T01:44:42.483Z,0
2017-10-28T01:45:42.827Z,0
2017-10-28T01:46:43.161Z,0
2017-10-28T01:47:43.480Z,0
2017-10-28T01:48:43.500Z,0
2017-10-28T01:49:43.199Z,0
2017-10-28T01:50:42.901Z,0
2017-10-28T01:51:43.224Z,0
2017-10-28T01:52:43.243Z,0
2017-10-28T01:53:42.619Z,0
2017-10-28T01:54:42.963Z,0
2017-10-28T01:55:43.294Z,0
2017-10-28T01:56:42.990Z,0
2017-10-28T01:57:43.650Z,0
2017-10-28T01:58:43.033Z,0
2017-10-28T01:59:42.729Z,0
2017-10-28T02:00:43.383Z,0
2017-10-28T02:01:43.099Z,0
2017-10-28T02:02:43.426Z,0
2017-10-28T02:03:43.466Z,0
2017-10-28T02:04:43.143Z,0
2017-10-28T02:05:43.149Z,0
2017-10-28T02:06:43.492Z,0
2017-10-28T02:07:42.855Z,0
2017-10-28T02:08:43.837Z,0
2017-10-28T02:09:43.260Z,0
2017-10-28T02:10:43.234Z,0
2017-10-28T02:11:43.884Z,0
2017-10-28T02:12:43.264Z,0
2017-10-28T02:13:43.601Z,0
2017-10-28T02:14:43.655Z,0
2017-10-28T02:15:43.010Z,0
2017-10-28T02:16:43.659Z,0
2017-10-28T02:17:43.683Z,0
2017-10-28T02:18:43.698Z,0
2017-10-28T02:19:43.705Z,0
2017-10-28T02:20:43.737Z,0
2017-10-28T02:21:43.434Z,0
2017-10-28T02:22:43.442Z,0
2017-10-28T02:23:43.459Z,0
2017-10-28T02:24:43.497Z,0
2017-10-28T02:25:43.545Z,0
2017-10-28T02:26:43.521Z,0
2017-10-28T02:27:43.847Z,0
2017-10-28T02:28:44.186Z,0
2017-10-28T02:29:43.578Z,0
2017-10-28T02:30:43.924Z,0
2017-10-28T02:31:43.921Z,0
2017-10-28T02:32:43.941Z,0
2017-10-28T02:33:43.636Z,0
2017-10-28T02:34:44.297Z,0
2017-10-28T02:35:43.995Z,0
2017-10-28T02:36:44.021Z,0
2017-10-28T02:37:43.062Z,0
2017-10-28T02:38:44.381Z,0
2017-10-28T02:39:44.059Z,0
2017-10-28T02:40:44.142Z,0
2017-10-28T02:41:44.102Z,0
2017-10-28T02:42:43.800Z,0
2017-10-28T02:43:43.484Z,0
2017-10-28T02:44:43.830Z,0
2017-10-28T02:45:44.165Z,0
2017-10-28T02:46:43.866Z,0
2017-10-28T02:47:44.193Z,0
2017-10-28T02:48:43.899Z,0
2017-10-28T02:49:43.584Z,0
2017-10-28T02:50:44.564Z,0
2017-10-28T02:51:44.264Z,0
2017-10-28T02:52:43.972Z,0
2017-10-28T02:53:44.620Z,0
2017-10-28T02:54:44.660Z,0
2017-10-28T02:55:44.388Z,0
2017-10-28T02:56:43.384Z,0
2017-10-28T02:57:44.049Z,0
2017-10-28T02:58:44.389Z,0
2017-10-28T02:59:44.081Z,0
2017-10-28T03:00:44.429Z,0
2017-10-28T03:01:44.444Z,0
2017-10-28T03:02:44.777Z,0
2017-10-28T03:03:44.792Z,0
2017-10-28T03:04:43.850Z,0
2017-10-28T03:05:43.870Z,0
2017-10-28T03:06:44.539Z,0
2017-10-28T03:07:44.230Z,0
2017-10-28T03:08:43.917Z,0
2017-10-28T03:09:44.258Z,0
2017-10-28T03:10:44.609Z,0
2017-10-28T03:11:44.019Z,0
2017-10-28T03:12:43.988Z,0
2017-10-28T03:13:44.332Z,0
2017-10-28T03:14:44.696Z,0
2017-10-28T03:15:44.701Z,0
2017-10-28T03:16:44.380Z,0
2017-10-28T03:17:45.041Z,0
2017-10-28T03:18:44.411Z,0
2017-10-28T03:19:44.759Z,0
2017-10-28T03:20:44.774Z,0
2017-10-28T03:21:44.790Z,0
2017-10-28T03:22:44.498Z,0
2017-10-28T03:23:44.828Z,0
2017-10-28T03:24:45.170Z,0
2017-10-28T03:25:44.528Z,0
2017-10-28T03:26:44.277Z,0
2017-10-28T03:27:44.596Z,0
2017-10-28T03:28:45.241Z,0
2017-10-28T03:29:44.598Z,0
2017-10-28T03:30:45.261Z,0
2017-10-28T03:31:44.320Z,0
2017-10-28T03:32:45.021Z,0
2017-10-28T03:33:44.687Z,0
2017-10-28T03:34:44.689Z,0
2017-10-28T03:35:44.704Z,0
2017-10-28T03:36:44.401Z,0
2017-10-28T03:37:44.742Z,0
2017-10-28T03:38:44.439Z,0
2017-10-28T03:39:44.457Z,0
2017-10-28T03:40:45.114Z,0
2017-10-28T03:41:44.863Z,0
2017-10-28T03:42:44.828Z,0
2017-10-28T03:43:44.525Z,0
2017-10-28T03:44:44.871Z,0
2017-10-28T03:45:45.213Z,0
2017-10-28T03:46:44.896Z,0
2017-10-28T03:47:44.916Z,0
2017-10-28T03:48:45.572Z,0
2017-10-28T03:49:45.279Z,0
2017-10-28T03:50:45.354Z,0
2017-10-28T03:51:45.342Z,0
2017-10-28T03:52:44.676Z,0
2017-10-28T03:53:45.341Z,0
2017-10-28T03:54:44.714Z,0
2017-10-28T03:55:44.731Z,0
2017-10-28T03:56:45.131Z,0
2017-10-28T03:57:45.421Z,0
2017-10-28T03:58:45.444Z,0
2017-10-28T03:59:45.446Z,0
2017-10-28T04:00:45.800Z,0
2017-10-28T04:01:45.477Z,0
2017-10-28T04:02:45.492Z,0
2017-10-28T04:03:45.834Z,0
2017-10-28T04:04:45.539Z,0
2017-10-28T04:05:45.545Z,0
2017-10-28T04:06:45.260Z,0
2017-10-28T04:07:44.940Z,0
2017-10-28T04:08:45.281Z,0
2017-10-28T04:09:45.620Z,0
2017-10-28T04:10:45.321Z,0
2017-10-28T04:11:45.329Z,0
2017-10-28T04:12:45.664Z,0
2017-10-28T04:13:45.681Z,0
2017-10-28T04:14:44.746Z,0
2017-10-28T04:15:45.073Z,0
2017-10-28T04:16:45.417Z,0
2017-10-28T04:17:45.444Z,0
2017-10-28T04:18:44.799Z,0
2017-10-28T04:19:46.119Z,0
2017-10-28T04:20:45.480Z,0
2017-10-28T04:21:46.159Z,0
2017-10-28T04:22:45.591Z,0
2017-10-28T04:23:45.569Z,0
2017-10-28T04:24:45.576Z,0
2017-10-28T04:25:45.243Z,0
2017-10-28T04:26:45.597Z,0
2017-10-28T04:27:45.602Z,0
2017-10-28T04:28:46.255Z,0
2017-10-28T04:29:45.633Z,0
2017-10-28T04:30:45.650Z,0
2017-10-28T04:31:45.715Z,0
2017-10-28T04:32:45.367Z,0
2017-10-28T04:33:46.032Z,0
2017-10-28T04:34:45.726Z,0
2017-10-28T04:35:46.057Z,0
2017-10-28T04:36:46.395Z,0
2017-10-28T04:37:46.094Z,0
2017-10-28T04:38:46.118Z,0
2017-10-28T04:39:45.495Z,0
2017-10-28T04:40:45.821Z,0
2017-10-28T04:41:46.181Z,0
2017-10-28T04:42:45.865Z,0
2017-10-28T04:43:46.197Z,0
2017-10-28T04:44:46.559Z,0
2017-10-28T04:45:45.585Z,0
2017-10-28T04:46:46.249Z,0
2017-10-28T04:47:46.278Z,0
2017-10-28T04:48:46.291Z,0
2017-10-28T04:49:46.349Z,0
2017-10-28T04:50:46.316Z,0
2017-10-28T04:51:46.336Z,0
2017-10-28T04:52:46.348Z,0
2017-10-28T04:53:46.370Z,0
2017-10-28T04:54:46.069Z,0
2017-10-28T04:55:45.440Z,0
2017-10-28T04:56:46.109Z,0
2017-10-28T04:57:46.142Z,0
2017-10-28T04:58:46.476Z,0
2017-10-28T04:59:46.151Z,0
2017-10-28T05:00:46.495Z,0
2017-10-28T05:01:46.836Z,0
2017-10-28T05:02:46.244Z,0
2017-10-28T05:03:45.900Z,0
2017-10-28T05:04:46.294Z,0
2017-10-28T05:05:46.253Z,0
2017-10-28T05:06:46.271Z,0
2017-10-28T05:07:45.967Z,0
2017-10-28T05:08:46.955Z,0
2017-10-28T05:09:46.332Z,0
2017-10-28T05:10:46.335Z,0
2017-10-28T05:11:46.672Z,0
2017-10-28T05:12:46.051Z,0
2017-10-28T05:13:46.716Z,0
2017-10-28T05:14:46.725Z,0
2017-10-28T05:15:46.423Z,0
2017-10-28T05:16:47.086Z,0
2017-10-28T05:17:46.787Z,0
2017-10-28T05:18:46.853Z,0
2017-10-28T05:19:46.830Z,0
2017-10-28T05:20:46.510Z,0
2017-10-28T05:21:46.526Z,0
2017-10-28T05:22:47.192Z,0
2017-10-28T05:23:46.559Z,0
2017-10-28T05:24:46.266Z,0
2017-10-28T05:25:46.905Z,0
2017-10-28T05:26:46.606Z,0
2017-10-28T05:27:46.951Z,0
2017-10-28T05:28:46.323Z,0
2017-10-28T05:29:46.352Z,0
2017-10-28T05:30:46.694Z,0
2017-10-28T05:31:46.380Z,0
2017-10-28T05:32:46.710Z,0
2017-10-28T05:33:47.053Z,0
2017-10-28T05:34:47.082Z,0
2017-10-28T05:35:46.445Z,0
2017-10-28T05:36:46.791Z,0
2017-10-28T05:37:46.798Z,0
2017-10-28T05:38:46.838Z,0
2017-10-28T05:39:46.890Z,0
2017-10-28T05:40:47.518Z,0
2017-10-28T05:41:46.860Z,0
2017-10-28T05:42:47.206Z,0
2017-10-28T05:43:46.918Z,0
2017-10-28T05:44:46.915Z,0
2017-10-28T05:45:46.937Z,0
2017-10-28T05:46:46.955Z,0
2017-10-28T05:47:46.964Z,0
2017-10-28T05:48:46.663Z,0
2017-10-28T05:49:46.995Z,0
2017-10-28T05:50:47.342Z,0
2017-10-28T05:51:47.347Z,5
2017-10-28T05:52:47.051Z,5
2017-10-28T05:53:47.066Z,5
2017-10-28T05:54:47.410Z,5
2017-10-28T05:55:47.427Z,5
2017-10-28T05:56:47.497Z,5
2017-10-28T05:57:46.831Z,5
2017-10-28T05:58:47.483Z,5
2017-10-28T05:59:47.491Z,10
2017-10-28T06:00:47.196Z,10
2017-10-28T06:01:46.558Z,10
2017-10-28T06:02:47.220Z,10
2017-10-28T06:03:47.240Z,15
2017-10-28T06:04:47.245Z,15
2017-10-28T06:05:47.594Z,15
2017-10-28T06:06:46.957Z,15
2017-10-28T06:07:47.298Z,15
2017-10-28T06:08:47.638Z,20
2017-10-28T06:09:47.973Z,20
2017-10-28T06:10:47.033Z,20
2017-10-28T06:11:47.749Z,20
2017-10-28T06:12:47.066Z,25
2017-10-28T06:13:47.751Z,25
2017-10-28T06:14:47.423Z,25
2017-10-28T06:15:47.112Z,25
2017-10-28T06:16:47.769Z,30
2017-10-28T06:17:47.469Z,30
2017-10-28T06:18:47.477Z,30
2017-10-28T06:19:47.819Z,30
2017-10-28T06:20:47.190Z,35
2017-10-28T06:21:47.855Z,35
2017-10-28T06:22:47.864Z,35
2017-10-28T06:23:47.580Z,35
2017-10-28T06:24:47.585Z,40
2017-10-28T06:25:47.597Z,40
2017-10-28T06:26:47.944Z,40
2017-10-28T06:27:48.012Z,45
2017-10-28T06:28:47.972Z,45
2017-10-28T06:29:48.327Z,50
2017-10-28T06:30:48.008Z,50
2017-10-28T06:31:47.702Z,50
2017-10-28T06:32:47.720Z,45
2017-10-28T06:33:48.054Z,45
2017-10-28T06:34:48.067Z,45
2017-10-28T06:35:47.778Z,40
2017-10-28T06:36:48.422Z,40
2017-10-28T06:37:47.797Z,45
2017-10-28T06:38:47.815Z,45
2017-10-28T06:39:48.153Z,50
2017-10-28T06:40:48.496Z,50
2017-10-28T06:41:47.541Z,55
2017-10-28T06:42:47.608Z,55
2017-10-28T06:43:47.899Z,55
2017-10-28T06:44:47.612Z,55
2017-10-28T06:45:47.936Z,60
2017-10-28T06:46:47.631Z,60
2017-10-28T06:47:47.965Z,65
2017-10-28T06:48:48.304Z,65
2017-10-28T06:49:48.040Z,70
2017-10-28T06:50:48.019Z,70
2017-10-28T06:51:48.032Z,70
2017-10-28T06:52:48.700Z,75
2017-10-28T06:53:48.401Z,80
2017-10-28T06:54:48.083Z,80
2017-10-28T06:55:48.422Z,85
2017-10-28T06:56:47.821Z,90
2017-10-28T06:57:48.135Z,95
2017-10-28T06:58:48.815Z,100
2017-10-28T06:59:48.866Z,100
2017-10-28T07:00:48.185Z,105
2017-10-28T07:01:48.203Z,105
2017-10-28T07:02:48.536Z,105
2017-10-28T07:03:48.237Z,100
2017-10-28T07:04:48.578Z,100
2017-10-28T07:05:47.951Z,100
2017-10-28T07:06:48.618Z,100
2017-10-28T07:07:48.631Z,110
2017-10-28T07:08:48.655Z,110
2017-10-28T07:09:48.340Z,115
2017-10-28T07:10:48.365Z,120
2017-10-28T07:11:48.395Z,125
2017-10-28T07:12:48.386Z,130
2017-10-28T07:13:48.733Z,135
2017-10-28T07:14:48.096Z,135
2017-10-28T07:15:48.124Z,145
2017-10-28T07:16:48.180Z,155
2017-10-28T07:17:48.480Z,160
2017-10-28T07:18:48.500Z,155
2017-10-28T07:19:48.505Z,150
2017-10-28T07:20:48.522Z,145
2017-10-28T07:21:48.856Z,140
2017-10-28T07:22:48.240Z,140
2017-10-28T07:23:48.248Z,145
2017-10-28T07:24:48.607Z,145
2017-10-28T07:25:48.617Z,145
2017-10-28T07:26:49.267Z,145
2017-10-28T07:27:48.975Z,145
2017-10-28T07:28:48.340Z,140
2017-10-28T07:29:49.009Z,130
2017-10-28T07:30:48.378Z,125
2017-10-28T07:31:49.092Z,125
2017-10-28T07:32:49.058Z,125
2017-10-28T07:33:49.409Z,125
2017-10-28T07:34:49.091Z,125
2017-10-28T07:35:49.109Z,120
2017-10-28T07:36:49.137Z,120
2017-10-28T07:37:48.820Z,115
2017-10-28T07:38:49.170Z,110
2017-10-28T07:39:48.858Z,100
2017-10-28T07:40:48.554Z,100
2017-10-28T07:41:49.208Z,90
2017-10-28T07:42:48.901Z,85
2017-10-28T07:43:49.253Z,80
2017-10-28T07:44:48.615Z,80
2017-10-28T07:45:49.283Z,75
2017-10-28T07:46:49.032Z,75
2017-10-28T07:47:49.009Z,70
2017-10-28T07:48:48.691Z,60
2017-10-28T07:49:49.370Z,55
2017-10-28T07:50:49.377Z,50
2017-10-28T07:51:49.387Z,45
2017-10-28T07:52:49.398Z,45
2017-10-28T07:53:49.738Z,40
2017-10-28T07:54:49.434Z,40
2017-10-28T07:55:49.131Z,40
2017-10-28T07:56:48.825Z,40
2017-10-28T07:57:49.164Z,35
2017-10-28T07:58:49.508Z,35
2017-10-28T07:59:49.531Z,35
2017-10-28T08:00:49.863Z,35
2017-10-28T08:01:48.911Z,40
2017-10-28T08:02:48.927Z,50
2017-10-28T08:03:49.927Z,70
2017-10-28T08:04:48.962Z,75
2017-10-28T08:05:49.309Z,80
2017-10-28T08:06:49.662Z,85
2017-10-28T08:07:49.665Z,80
2017-10-28T08:08:49.675Z,80
2017-10-28T08:09:49.704Z,80
2017-10-28T08:10:49.406Z,75
2017-10-28T08:11:49.726Z,75
2017-10-28T08:12:49.750Z,70
2017-10-28T08:13:49.444Z,70
2017-10-28T08:14:49.141Z,70
2017-10-28T08:15:49.827Z,70
2017-10-28T08:16:49.819Z,75
2017-10-28T08:17:49.514Z,80
2017-10-28T08:18:49.852Z,80
2017-10-28T08:19:48.950Z,80
2017-10-28T08:20:50.207Z,85
2017-10-28T08:21:49.916Z,90
2017-10-28T08:22:49.956Z,100
2017-10-28T08:23:49.945Z,100
2017-10-28T08:24:50.291Z,100
2017-10-28T08:25:49.664Z,105
2017-10-28T08:26:49.669Z,110
2017-10-28T08:27:49.684Z,120
2017-10-28T08:28:50.044Z,130
2017-10-28T08:29:49.723Z,135
2017-10-28T08:30:49.741Z,140
2017-10-28T08:31:49.431Z,135
2017-10-28T08:32:50.112Z,125
2017-10-28T08:33:49.787Z,120
2017-10-28T08:34:49.499Z,120
2017-10-28T08:35:49.823Z,130
2017-10-28T08:36:50.171Z,135
2017-10-28T08:37:49.859Z,135
2017-10-28T08:38:49.926Z,140
2017-10-28T08:39:50.537Z,140
2017-10-28T08:40:49.933Z,145
2017-10-28T08:41:50.260Z,150
2017-10-28T08:42:49.954Z,160
2017-10-28T08:43:49.971Z,160
2017-10-28T08:44:49.990Z,150
2017-10-28T08:45:50.335Z,145
2017-10-28T08:46:50.020Z,150
2017-10-28T08:47:50.043Z,155
2017-10-28T08:48:49.731Z,155
2017-10-28T08:49:49.756Z,150
2017-10-28T08:50:49.773Z,150
2017-10-28T08:51:50.439Z,150
2017-10-28T08:52:50.763Z,150
2017-10-28T08:53:50.459Z,155
2017-10-28T08:54:50.861Z,165
2017-10-28T08:55:50.182Z,165
2017-10-28T08:56:50.203Z,170
2017-10-28T08:57:50.544Z,160
2017-10-28T08:58:50.876Z,160
2017-10-28T08:59:50.252Z,155
2017-10-28T09:00:50.268Z,150
2017-10-28T09:01:50.935Z,150
2017-10-28T09:02:50.001Z,155
2017-10-28T09:03:49.674Z,160
2017-10-28T09:04:50.671Z,150
2017-10-28T09:05:50.365Z,145
2017-10-28T09:06:50.052Z,140
2017-10-28T09:07:51.075Z,140
2017-10-28T09:08:50.728Z,140
2017-10-28T09:09:50.109Z,150
2017-10-28T09:10:51.093Z,160
2017-10-28T09:11:50.842Z,170
2017-10-28T09:12:50.494Z,185
2017-10-28T09:13:50.500Z,205
2017-10-28T09:14:51.167Z,225
2017-10-28T09:15:49.891Z,230
2017-10-28T09:16:50.561Z,240
2017-10-28T09:17:50.570Z,240
2017-10-28T09:18:50.595Z,220
2017-10-28T09:19:51.258Z,205
2017-10-28T09:20:50.643Z,195
2017-10-28T09:21:51.294Z,185
2017-10-28T09:22:51.306Z,185
2017-10-28T09:23:51.013Z,205
2017-10-28T09:24:50.705Z,235
2017-10-28T09:25:51.046Z,270
2017-10-28T09:26:50.464Z,290
2017-10-28T09:27:50.762Z,310
2017-10-28T09:28:50.450Z,320
2017-10-28T09:29:51.109Z,350
2017-10-28T09:30:50.493Z,385
2017-10-28T09:31:50.825Z,425
2017-10-28T09:32:50.525Z,460
2017-10-28T09:33:50.542Z,460
2017-10-28T09:34:51.218Z,415
2017-10-28T09:35:50.927Z,370
2017-10-28T09:36:51.569Z,335
2017-10-28T09:37:51.267Z,315
2017-10-28T09:38:51.610Z,325
2017-10-28T09:39:51.016Z,335
2017-10-28T09:40:50.690Z,340
2017-10-28T09:41:51.022Z,320
2017-10-28T09:42:51.060Z,310
2017-10-28T09:43:50.743Z,325
2017-10-28T09:44:51.405Z,335
2017-10-28T09:45:51.103Z,320
2017-10-28T09:46:51.119Z,355
2017-10-28T09:47:50.818Z,395
2017-10-28T09:48:51.152Z,430
2017-10-28T09:49:51.502Z,435
2017-10-28T09:50:51.528Z,460
2017-10-28T09:51:51.532Z,460
2017-10-28T09:52:50.916Z,405
2017-10-28T09:53:51.904Z,440
2017-10-28T09:54:51.276Z,420
2017-10-28T09:55:51.638Z,440
2017-10-28T09:56:50.993Z,380
2017-10-28T09:57:50.685Z,340
2017-10-28T09:58:50.754Z,295
2017-10-28T09:59:51.058Z,295
2017-10-28T10:00:51.389Z,305
2017-10-28T10:01:51.735Z,320
2017-10-28T10:02:51.116Z,315
2017-10-28T10:03:51.134Z,350
2017-10-28T10:04:51.787Z,310
2017-10-28T10:05:51.500Z,320
2017-10-28T10:06:51.837Z,345
2017-10-28T10:07:51.528Z,415
2017-10-28T10:08:52.193Z,415
2017-10-28T10:09:51.908Z,350
2017-10-28T10:10:51.586Z,440
2017-10-28T10:11:52.249Z,560
2017-10-28T10:12:51.300Z,835
2017-10-28T10:13:51.318Z,940
2017-10-28T10:14:51.695Z,845
2017-10-28T10:15:51.084Z,840
2017-10-28T10:16:51.708Z,385
2017-10-28T10:17:52.359Z,850
2017-10-28T10:18:51.742Z,335
2017-10-28T10:19:52.082Z,340
2017-10-28T10:20:51.777Z,375
2017-10-28T10:21:51.478Z,440
2017-10-28T10:22:51.818Z,445
2017-10-28T10:23:52.488Z,480
2017-10-28T10:24:51.870Z,550
2017-10-28T10:25:51.892Z,415
2017-10-28T10:26:52.225Z,295
2017-10-28T10:27:52.253Z,270
2017-10-28T10:28:52.277Z,265
2017-10-28T10:29:52.294Z,265
2017-10-28T10:30:52.000Z,250
2017-10-28T10:31:52.338Z,220
2017-10-28T10:32:52.035Z,215
2017-10-28T10:33:52.372Z,220
2017-10-28T10:34:52.394Z,225
2017-10-28T10:35:52.416Z,240
2017-10-28T10:36:51.466Z,265
2017-10-28T10:37:51.814Z,280
2017-10-28T10:38:52.469Z,265
2017-10-28T10:39:52.502Z,260
2017-10-28T10:40:51.869Z,270
2017-10-28T10:41:52.207Z,275
2017-10-28T10:42:52.881Z,325
2017-10-28T10:43:52.569Z,375
2017-10-28T10:44:52.270Z,335
2017-10-28T10:45:52.933Z,355
2017-10-28T10:46:52.962Z,385
2017-10-28T10:47:52.339Z,410
2017-10-28T10:48:52.364Z,410
2017-10-28T10:49:52.417Z,390
2017-10-28T10:50:52.077Z,360
2017-10-28T10:51:52.736Z,370
2017-10-28T10:52:52.435Z,450
2017-10-28T10:53:52.766Z,1010
2017-10-28T10:54:52.471Z,640
2017-10-28T10:55:52.496Z,1480
2017-10-28T10:56:52.515Z,1320
2017-10-28T10:57:52.846Z,805
2017-10-28T10:58:52.918Z,640
2017-10-28T10:59:52.243Z,520
2017-10-28T11:00:52.585Z,710
2017-10-28T11:01:52.283Z,340
2017-10-28T11:02:52.630Z,325
2017-10-28T11:03:52.970Z,335
2017-10-28T11:04:52.665Z,335
2017-10-28T11:05:53.346Z,300
2017-10-28T11:06:52.761Z,255
2017-10-28T11:07:52.737Z,240
2017-10-28T11:08:53.075Z,240
2017-10-28T11:09:53.418Z,200
2017-10-28T11:10:53.432Z,210
2017-10-28T11:11:52.489Z,215
2017-10-28T11:12:53.153Z,250
2017-10-28T11:13:52.859Z,210
2017-10-28T11:14:52.873Z,230
2017-10-28T11:15:53.237Z,315
2017-10-28T11:16:52.912Z,535
2017-10-28T11:17:52.623Z,460
2017-10-28T11:18:53.280Z,945
2017-10-28T11:19:52.982Z,1670
2017-10-28T11:20:52.991Z,715
2017-10-28T11:21:52.689Z,530
2017-10-28T11:22:53.360Z,1080
2017-10-28T11:23:53.053Z,540
2017-10-28T11:24:53.410Z,585
2017-10-28T11:25:53.109Z,1810
2017-10-28T11:26:53.119Z,1855
2017-10-28T11:27:53.798Z,815
2017-10-28T11:28:53.484Z,2015
2017-10-28T11:29:53.833Z,1955
2017-10-28T11:30:53.534Z,605
2017-10-28T11:31:53.555Z,1310
2017-10-28T11:32:53.897Z,1985
2017-10-28T11:33:53.597Z,1695
2017-10-28T11:34:52.988Z,920
2017-10-28T11:35:53.412Z,720
2017-10-28T11:36:53.686Z,475
2017-10-28T11:37:53.698Z,480
2017-10-28T11:38:53.396Z,1185
2017-10-28T11:39:53.737Z,1150
2017-10-28T11:40:53.811Z,705
2017-10-28T11:41:53.467Z,535
2017-10-28T11:42:53.803Z,1425
2017-10-28T11:43:53.824Z,410
2017-10-28T11:44:53.527Z,475
2017-10-28T11:45:53.881Z,350
2017-10-28T11:46:53.900Z,360
2017-10-28T11:47:53.602Z,320
2017-10-28T11:48:53.940Z,275
2017-10-28T11:49:53.023Z,300
2017-10-28T11:50:54.308Z,595
2017-10-28T11:51:53.368Z,630
2017-10-28T11:52:54.038Z,380
2017-10-28T11:53:54.058Z,365
2017-10-28T11:54:54.136Z,245
2017-10-28T11:55:54.096Z,190
2017-10-28T11:56:53.806Z,145
2017-10-28T11:57:53.499Z,150
2017-10-28T11:58:53.891Z,170
2017-10-28T11:59:53.878Z,205
2017-10-28T12:00:54.231Z,215
2017-10-28T12:01:54.550Z,205
2017-10-28T12:02:53.610Z,250
2017-10-28T12:03:53.650Z,840
2017-10-28T12:04:53.654Z,460
2017-10-28T12:05:54.318Z,375
2017-10-28T12:06:54.010Z,545
2017-10-28T12:07:54.360Z,430
2017-10-28T12:08:54.699Z,900
2017-10-28T12:09:54.100Z,305
2017-10-28T12:10:54.093Z,625
2017-10-28T12:11:54.133Z,390
2017-10-28T12:12:54.132Z,500
2017-10-28T12:13:54.588Z,925
2017-10-28T12:14:53.852Z,875
2017-10-28T12:15:53.875Z,620
2017-10-28T12:16:54.217Z,515
2017-10-28T12:17:54.609Z,930
2017-10-28T12:18:53.936Z,815
2017-10-28T12:19:54.911Z,310
2017-10-28T12:20:54.300Z,405
2017-10-28T12:21:54.642Z,430
2017-10-28T12:22:55.010Z,630
2017-10-28T12:23:54.036Z,430
2017-10-28T12:24:54.709Z,1390
2017-10-28T12:25:54.432Z,215
2017-10-28T12:26:54.443Z,215
2017-10-28T12:27:54.789Z,220
2017-10-28T12:28:54.144Z,225
2017-10-28T12:29:54.844Z,240
2017-10-28T12:30:54.831Z,215
2017-10-28T12:31:54.852Z,235
2017-10-28T12:32:54.600Z,235
2017-10-28T12:33:54.596Z,310
2017-10-28T12:34:54.290Z,270
2017-10-28T12:35:55.257Z,295
2017-10-28T12:36:54.962Z,215
2017-10-28T12:37:54.665Z,265
2017-10-28T12:38:55.009Z,350
2017-10-28T12:39:55.035Z,355
2017-10-28T12:40:54.716Z,320
2017-10-28T12:41:54.734Z,325
2017-10-28T12:42:54.761Z,265
2017-10-28T12:43:54.138Z,200
2017-10-28T12:44:55.125Z,195
2017-10-28T12:45:54.180Z,235
2017-10-28T12:46:55.176Z,275
2017-10-28T12:47:54.596Z,210
2017-10-28T12:48:55.547Z,200
2017-10-28T12:49:55.242Z,205
2017-10-28T12:50:54.630Z,195
2017-10-28T12:51:54.631Z,205
2017-10-28T12:52:54.977Z,180
2017-10-28T12:53:54.670Z,145
2017-10-28T12:54:55.663Z,120
2017-10-28T12:55:55.039Z,110
2017-10-28T12:56:55.700Z,125
2017-10-28T12:57:55.077Z,145
2017-10-28T12:58:55.420Z,205
2017-10-28T12:59:55.755Z,195
2017-10-28T13:00:55.148Z,285
2017-10-28T13:01:54.503Z,235
2017-10-28T13:02:55.219Z,355
2017-10-28T13:03:55.190Z,220
2017-10-28T13:04:55.533Z,180
2017-10-28T13:05:54.591Z,155
2017-10-28T13:06:54.600Z,160
2017-10-28T13:07:55.600Z,180
2017-10-28T13:08:55.292Z,190
2017-10-28T13:09:55.957Z,195
2017-10-28T13:10:55.990Z,180
2017-10-28T13:11:55.357Z,165
2017-10-28T13:12:55.684Z,185
2017-10-28T13:13:55.706Z,195
2017-10-28T13:14:55.406Z,170
2017-10-28T13:15:55.439Z,150
2017-10-28T13:16:55.481Z,140
2017-10-28T13:17:55.837Z,120
2017-10-28T13:18:55.157Z,110
2017-10-28T13:19:55.842Z,95
2017-10-28T13:20:55.868Z,90
2017-10-28T13:21:55.860Z,105
2017-10-28T13:22:56.201Z,110
2017-10-28T13:23:55.897Z,115
2017-10-28T13:24:55.919Z,120
2017-10-28T13:25:55.288Z,115
2017-10-28T13:26:55.624Z,105
2017-10-28T13:27:55.969Z,110
2017-10-28T13:28:55.676Z,125
2017-10-28T13:29:55.685Z,135
2017-10-28T13:30:55.712Z,165
2017-10-28T13:31:56.052Z,200
2017-10-28T13:32:56.123Z,195
2017-10-28T13:33:55.445Z,180
2017-10-28T13:34:56.157Z,155
2017-10-28T13:35:55.818Z,170
2017-10-28T13:36:56.467Z,200
2017-10-28T13:37:56.167Z,210
2017-10-28T13:38:55.851Z,170
2017-10-28T13:39:55.568Z,140
2017-10-28T13:40:55.575Z,130
2017-10-28T13:41:56.235Z,125
2017-10-28T13:42:55.929Z,140
2017-10-28T13:43:55.956Z,145
2017-10-28T13:44:55.654Z,140
2017-10-28T13:45:55.995Z,135
2017-10-28T13:46:56.337Z,135
2017-10-28T13:47:55.786Z,145
2017-10-28T13:48:56.380Z,155
2017-10-28T13:49:56.414Z,165
2017-10-28T13:50:56.095Z,165
2017-10-28T13:51:56.434Z,150
2017-10-28T13:52:56.135Z,140
2017-10-28T13:53:56.152Z,130
2017-10-28T13:54:56.488Z,130
2017-10-28T13:55:56.852Z,130
2017-10-28T13:56:56.209Z,120
2017-10-28T13:57:56.870Z,110
2017-10-28T13:58:56.568Z,110
2017-10-28T13:59:56.271Z,100
2017-10-28T14:00:55.955Z,95
2017-10-28T14:01:56.297Z,90
2017-10-28T14:02:56.319Z,90
2017-10-28T14:03:57.034Z,80
2017-10-28T14:04:56.041Z,65
2017-10-28T14:05:56.061Z,70
2017-10-28T14:06:56.392Z,70
2017-10-28T14:07:56.096Z,70
2017-10-28T14:08:56.765Z,65
2017-10-28T14:09:56.779Z,65
2017-10-28T14:10:57.127Z,70
2017-10-28T14:11:56.184Z,70
2017-10-28T14:12:57.157Z,75
2017-10-28T14:13:56.842Z,75
2017-10-28T14:14:56.563Z,80